<?xml version="1.0" encoding="utf-8"?>
<gpx xmlns:xsi="http://www.w3.org/2001/XMLSchema-instance" xmlns:xsd="http://www.w3.org/2001/XMLSchema" version="1.1" creator="Shapelink.com" xmlns="http://www.topografix.com/GPX/1/1" xmlns:gpxtpx="http://www.garmin.com/xmlschemas/TrackPointExtension/v1">
  <metadata>
    <name>Löpning 5.64 km, 2012-02-22</name>
    <desc></desc>
    <author><name>Dennis Rehn</name></author> 
    <time>2012-02-22T10:55:58Z</time>
  </metadata>
  <trk>
    <name>Löpning 5.64 km, 2012-02-22</name>
    <trkseg>
      <trkpt lat="59.9945423336" lon="23.4268542771">
        <ele>0</ele>
        <time>2012-02-22T10:55:58Z</time>
      </trkpt>
      <trkpt lat="59.9944019368" lon="23.4266801012">
        <ele>0</ele>
        <time>2012-02-22T10:56:04Z</time>
      </trkpt>
      <trkpt lat="59.9941752902" lon="23.4262233715">
        <ele>0</ele>
        <time>2012-02-22T10:56:17Z</time>
      </trkpt>
      <trkpt lat="59.9940768867" lon="23.4260390535">
        <ele>0</ele>
        <time>2012-02-22T10:56:21Z</time>
      </trkpt>
      <trkpt lat="59.9939812492" lon="23.4259958867">
        <ele>0</ele>
        <time>2012-02-22T10:56:25Z</time>
      </trkpt>
      <trkpt lat="59.9939040519" lon="23.4261148259">
        <ele>0</ele>
        <time>2012-02-22T10:56:29Z</time>
      </trkpt>
      <trkpt lat="59.9937754735" lon="23.4263836334">
        <ele>0</ele>
        <time>2012-02-22T10:56:35Z</time>
      </trkpt>
      <trkpt lat="59.9936039799" lon="23.4264668657">
        <ele>0</ele>
        <time>2012-02-22T10:56:42Z</time>
      </trkpt>
      <trkpt lat="59.993565926" lon="23.4265428895">
        <ele>0</ele>
        <time>2012-02-22T10:56:44Z</time>
      </trkpt>
      <trkpt lat="59.9934411196" lon="23.4268124514">
        <ele>0</ele>
        <time>2012-02-22T10:56:51Z</time>
      </trkpt>
      <trkpt lat="59.9933192467" lon="23.4269529321">
        <ele>0</ele>
        <time>2012-02-22T10:56:56Z</time>
      </trkpt>
      <trkpt lat="59.9931547939" lon="23.427027531">
        <ele>0</ele>
        <time>2012-02-22T10:57:02Z</time>
      </trkpt>
      <trkpt lat="59.9930177498" lon="23.4270399362">
        <ele>0</ele>
        <time>2012-02-22T10:57:07Z</time>
      </trkpt>
      <trkpt lat="59.9928752575" lon="23.4270384275">
        <ele>0</ele>
        <time>2012-02-22T10:57:12Z</time>
      </trkpt>
      <trkpt lat="59.9927339387" lon="23.4270479828">
        <ele>0</ele>
        <time>2012-02-22T10:57:17Z</time>
      </trkpt>
      <trkpt lat="59.9925743473" lon="23.4270433728">
        <ele>0</ele>
        <time>2012-02-22T10:57:23Z</time>
      </trkpt>
      <trkpt lat="59.9924437573" lon="23.4270332307">
        <ele>0</ele>
        <time>2012-02-22T10:57:28Z</time>
      </trkpt>
      <trkpt lat="59.9922797235" lon="23.4269843642">
        <ele>0</ele>
        <time>2012-02-22T10:57:34Z</time>
      </trkpt>
      <trkpt lat="59.9921495526" lon="23.4268904031">
        <ele>0</ele>
        <time>2012-02-22T10:57:39Z</time>
      </trkpt>
      <trkpt lat="59.9920051324" lon="23.4267240224">
        <ele>0</ele>
        <time>2012-02-22T10:57:45Z</time>
      </trkpt>
      <trkpt lat="59.9919853512" lon="23.4267081806">
        <ele>0</ele>
        <time>2012-02-22T10:57:46Z</time>
      </trkpt>
      <trkpt lat="59.9919158652" lon="23.4266091065">
        <ele>0</ele>
        <time>2012-02-22T10:57:49Z</time>
      </trkpt>
      <trkpt lat="59.9917692658" lon="23.4263740781">
        <ele>0</ele>
        <time>2012-02-22T10:57:56Z</time>
      </trkpt>
      <trkpt lat="59.9916439564" lon="23.4262341842">
        <ele>0</ele>
        <time>2012-02-22T10:58:01Z</time>
      </trkpt>
      <trkpt lat="59.9914924954" lon="23.4261130657">
        <ele>0</ele>
        <time>2012-02-22T10:58:07Z</time>
      </trkpt>
      <trkpt lat="59.991365342" lon="23.4260549791">
        <ele>0</ele>
        <time>2012-02-22T10:58:12Z</time>
      </trkpt>
      <trkpt lat="59.9912591433" lon="23.425979542">
        <ele>0</ele>
        <time>2012-02-22T10:58:16Z</time>
      </trkpt>
      <trkpt lat="59.9911227698" lon="23.4259376325">
        <ele>0</ele>
        <time>2012-02-22T10:58:21Z</time>
      </trkpt>
      <trkpt lat="59.9909548804" lon="23.4259062842">
        <ele>0</ele>
        <time>2012-02-22T10:58:27Z</time>
      </trkpt>
      <trkpt lat="59.9908306606" lon="23.4258895204">
        <ele>0</ele>
        <time>2012-02-22T10:58:32Z</time>
      </trkpt>
      <trkpt lat="59.9906765175" lon="23.4258632851">
        <ele>0</ele>
        <time>2012-02-22T10:58:37Z</time>
      </trkpt>
      <trkpt lat="59.9904719991" lon="23.4258280811">
        <ele>0</ele>
        <time>2012-02-22T10:58:44Z</time>
      </trkpt>
      <trkpt lat="59.9902912015" lon="23.4258103115">
        <ele>0</ele>
        <time>2012-02-22T10:58:51Z</time>
      </trkpt>
      <trkpt lat="59.9901446859" lon="23.4257951402">
        <ele>0</ele>
        <time>2012-02-22T10:58:55Z</time>
      </trkpt>
      <trkpt lat="59.9899959072" lon="23.4258067911">
        <ele>0</ele>
        <time>2012-02-22T10:59:00Z</time>
      </trkpt>
      <trkpt lat="59.9898721904" lon="23.4257951402">
        <ele>0</ele>
        <time>2012-02-22T10:59:04Z</time>
      </trkpt>
      <trkpt lat="59.9897027083" lon="23.4257476987">
        <ele>0</ele>
        <time>2012-02-22T10:59:10Z</time>
      </trkpt>
      <trkpt lat="59.9895372496" lon="23.4257171047">
        <ele>0</ele>
        <time>2012-02-22T10:59:16Z</time>
      </trkpt>
      <trkpt lat="59.9893681029" lon="23.4256987484">
        <ele>0</ele>
        <time>2012-02-22T10:59:22Z</time>
      </trkpt>
      <trkpt lat="59.989175403" lon="23.42570076">
        <ele>0</ele>
        <time>2012-02-22T10:59:29Z</time>
      </trkpt>
      <trkpt lat="59.9889899954" lon="23.4256999218">
        <ele>0</ele>
        <time>2012-02-22T10:59:35Z</time>
      </trkpt>
      <trkpt lat="59.988825794" lon="23.4256839962">
        <ele>0</ele>
        <time>2012-02-22T10:59:41Z</time>
      </trkpt>
      <trkpt lat="59.988665532" lon="23.4256769554">
        <ele>0</ele>
        <time>2012-02-22T10:59:47Z</time>
      </trkpt>
      <trkpt lat="59.9885295776" lon="23.4256568389">
        <ele>1</ele>
        <time>2012-02-22T10:59:52Z</time>
      </trkpt>
      <trkpt lat="59.9883731714" lon="23.4256537376">
        <ele>2</ele>
        <time>2012-02-22T10:59:57Z</time>
      </trkpt>
      <trkpt lat="59.9882020968" lon="23.4256149294">
        <ele>3.4</ele>
        <time>2012-02-22T11:00:03Z</time>
      </trkpt>
      <trkpt lat="59.9880488756" lon="23.4255946452">
        <ele>4.2</ele>
        <time>2012-02-22T11:00:08Z</time>
      </trkpt>
      <trkpt lat="59.9878999293" lon="23.4255614529">
        <ele>5.4</ele>
        <time>2012-02-22T11:00:13Z</time>
      </trkpt>
      <trkpt lat="59.9877341353" lon="23.4255091498">
        <ele>6.2</ele>
        <time>2012-02-22T11:00:19Z</time>
      </trkpt>
      <trkpt lat="59.9875882064" lon="23.425473862">
        <ele>7</ele>
        <time>2012-02-22T11:00:24Z</time>
      </trkpt>
      <trkpt lat="59.9874641543" lon="23.425446537">
        <ele>7.6</ele>
        <time>2012-02-22T11:00:28Z</time>
      </trkpt>
      <trkpt lat="59.9872610609" lon="23.4253711837">
        <ele>8.4</ele>
        <time>2012-02-22T11:00:35Z</time>
      </trkpt>
      <trkpt lat="59.9870742283" lon="23.4252724449">
        <ele>8.8</ele>
        <time>2012-02-22T11:00:41Z</time>
      </trkpt>
      <trkpt lat="59.9869063389" lon="23.4252008635">
        <ele>8.8</ele>
        <time>2012-02-22T11:00:47Z</time>
      </trkpt>
      <trkpt lat="59.9867630084" lon="23.4251278572">
        <ele>9</ele>
        <time>2012-02-22T11:00:52Z</time>
      </trkpt>
      <trkpt lat="59.9866028303" lon="23.4250825949">
        <ele>9.8</ele>
        <time>2012-02-22T11:00:58Z</time>
      </trkpt>
      <trkpt lat="59.9864472622" lon="23.425066334">
        <ele>10.4</ele>
        <time>2012-02-22T11:01:03Z</time>
      </trkpt>
      <trkpt lat="59.986294544" lon="23.4250730395">
        <ele>10.6</ele>
        <time>2012-02-22T11:01:08Z</time>
      </trkpt>
      <trkpt lat="59.98614543" lon="23.4250602152">
        <ele>10.8</ele>
        <time>2012-02-22T11:01:13Z</time>
      </trkpt>
      <trkpt lat="59.9859955616" lon="23.4250623107">
        <ele>11</ele>
        <time>2012-02-22T11:01:18Z</time>
      </trkpt>
      <trkpt lat="59.9858215534" lon="23.4250745483">
        <ele>12</ele>
        <time>2012-02-22T11:01:24Z</time>
      </trkpt>
      <trkpt lat="59.9856824138" lon="23.4250806671">
        <ele>12.4</ele>
        <time>2012-02-22T11:01:29Z</time>
      </trkpt>
      <trkpt lat="59.9855440287" lon="23.4250846066">
        <ele>12.8</ele>
        <time>2012-02-22T11:01:34Z</time>
      </trkpt>
      <trkpt lat="59.9853825094" lon="23.4250856962">
        <ele>13</ele>
        <time>2012-02-22T11:01:39Z</time>
      </trkpt>
      <trkpt lat="59.9851969342" lon="23.4250837684">
        <ele>13.2</ele>
        <time>2012-02-22T11:01:45Z</time>
      </trkpt>
      <trkpt lat="59.9850423719" lon="23.4250942458">
        <ele>13.2</ele>
        <time>2012-02-22T11:01:51Z</time>
      </trkpt>
      <trkpt lat="59.9849018075" lon="23.4250876241">
        <ele>13.2</ele>
        <time>2012-02-22T11:01:55Z</time>
      </trkpt>
      <trkpt lat="59.9847625003" lon="23.4250739616">
        <ele>13.2</ele>
        <time>2012-02-22T11:02:00Z</time>
      </trkpt>
      <trkpt lat="59.9846977082" lon="23.425131629">
        <ele>13.2</ele>
        <time>2012-02-22T11:02:03Z</time>
      </trkpt>
      <trkpt lat="59.9845627596" lon="23.4252498976">
        <ele>13.2</ele>
        <time>2012-02-22T11:02:08Z</time>
      </trkpt>
      <trkpt lat="59.9843892543" lon="23.4252123467">
        <ele>13.2</ele>
        <time>2012-02-22T11:02:14Z</time>
      </trkpt>
      <trkpt lat="59.9842869113" lon="23.4251845188">
        <ele>13.2</ele>
        <time>2012-02-22T11:02:18Z</time>
      </trkpt>
      <trkpt lat="59.9841753482" lon="23.4253995984">
        <ele>13.2</ele>
        <time>2012-02-22T11:02:23Z</time>
      </trkpt>
      <trkpt lat="59.9841475203" lon="23.42541368">
        <ele>13.2</ele>
        <time>2012-02-22T11:02:24Z</time>
      </trkpt>
      <trkpt lat="59.9839964785" lon="23.4253959942">
        <ele>13.2</ele>
        <time>2012-02-22T11:02:29Z</time>
      </trkpt>
      <trkpt lat="59.9839743502" lon="23.4250999454">
        <ele>13.2</ele>
        <time>2012-02-22T11:02:34Z</time>
      </trkpt>
      <trkpt lat="59.9839904435" lon="23.4248743885">
        <ele>13.2</ele>
        <time>2012-02-22T11:02:40Z</time>
      </trkpt>
      <trkpt lat="59.9839746855" lon="23.4245104464">
        <ele>12.8</ele>
        <time>2012-02-22T11:02:46Z</time>
      </trkpt>
      <trkpt lat="59.9839975681" lon="23.4242848057">
        <ele>12.2</ele>
        <time>2012-02-22T11:02:49Z</time>
      </trkpt>
      <trkpt lat="59.9840386394" lon="23.4240105499">
        <ele>11.8</ele>
        <time>2012-02-22T11:02:54Z</time>
      </trkpt>
      <trkpt lat="59.9840951334" lon="23.4236575881">
        <ele>11.6</ele>
        <time>2012-02-22T11:03:01Z</time>
      </trkpt>
      <trkpt lat="59.9841519627" lon="23.4232929754">
        <ele>11.4</ele>
        <time>2012-02-22T11:03:07Z</time>
      </trkpt>
      <trkpt lat="59.9842024217" lon="23.4229278599">
        <ele>11.4</ele>
        <time>2012-02-22T11:03:13Z</time>
      </trkpt>
      <trkpt lat="59.9842483546" lon="23.422648575">
        <ele>11.2</ele>
        <time>2012-02-22T11:03:18Z</time>
      </trkpt>
      <trkpt lat="59.9842964667" lon="23.4223193339">
        <ele>11.2</ele>
        <time>2012-02-22T11:03:23Z</time>
      </trkpt>
      <trkpt lat="59.984336113" lon="23.4221026618">
        <ele>11.2</ele>
        <time>2012-02-22T11:03:28Z</time>
      </trkpt>
      <trkpt lat="59.9843771005" lon="23.4218329323">
        <ele>11.2</ele>
        <time>2012-02-22T11:03:33Z</time>
      </trkpt>
      <trkpt lat="59.984436612" lon="23.421464464">
        <ele>11.2</ele>
        <time>2012-02-22T11:03:39Z</time>
      </trkpt>
      <trkpt lat="59.9844825448" lon="23.4211927228">
        <ele>11.2</ele>
        <time>2012-02-22T11:03:44Z</time>
      </trkpt>
      <trkpt lat="59.9845450738" lon="23.4208545131">
        <ele>11.2</ele>
        <time>2012-02-22T11:03:51Z</time>
      </trkpt>
      <trkpt lat="59.9846037471" lon="23.4206032237">
        <ele>11.2</ele>
        <time>2012-02-22T11:03:55Z</time>
      </trkpt>
      <trkpt lat="59.9846599058" lon="23.4203413732">
        <ele>11.2</ele>
        <time>2012-02-22T11:04:01Z</time>
      </trkpt>
      <trkpt lat="59.9846967862" lon="23.4200270519">
        <ele>11.2</ele>
        <time>2012-02-22T11:04:07Z</time>
      </trkpt>
      <trkpt lat="59.9847407912" lon="23.4196263133">
        <ele>11.2</ele>
        <time>2012-02-22T11:04:14Z</time>
      </trkpt>
      <trkpt lat="59.9847715527" lon="23.4192933842">
        <ele>11.2</ele>
        <time>2012-02-22T11:04:19Z</time>
      </trkpt>
      <trkpt lat="59.9847607401" lon="23.4189477147">
        <ele>11.2</ele>
        <time>2012-02-22T11:04:26Z</time>
      </trkpt>
      <trkpt lat="59.9847571359" lon="23.4186825952">
        <ele>10.4</ele>
        <time>2012-02-22T11:04:30Z</time>
      </trkpt>
      <trkpt lat="59.9847568006" lon="23.4186551025">
        <ele>10.2</ele>
        <time>2012-02-22T11:04:33Z</time>
      </trkpt>
      <trkpt lat="59.9847571359" lon="23.4186561084">
        <ele>10</ele>
        <time>2012-02-22T11:04:35Z</time>
      </trkpt>
      <trkpt lat="59.9847572197" lon="23.4186674239">
        <ele>9.6</ele>
        <time>2012-02-22T11:04:42Z</time>
      </trkpt>
      <trkpt lat="59.9847581417" lon="23.4186710281">
        <ele>9.4</ele>
        <time>2012-02-22T11:04:47Z</time>
      </trkpt>
      <trkpt lat="59.984758477" lon="23.4186731236">
        <ele>9.2</ele>
        <time>2012-02-22T11:04:59Z</time>
      </trkpt>
      <trkpt lat="59.9847598181" lon="23.4186800806">
        <ele>9.2</ele>
        <time>2012-02-22T11:05:07Z</time>
      </trkpt>
      <trkpt lat="59.984760321" lon="23.4186179707">
        <ele>9.2</ele>
        <time>2012-02-22T11:05:09Z</time>
      </trkpt>
      <trkpt lat="59.9847652663" lon="23.4184737182">
        <ele>9.2</ele>
        <time>2012-02-22T11:05:12Z</time>
      </trkpt>
      <trkpt lat="59.9847785935" lon="23.4180522763">
        <ele>9.8</ele>
        <time>2012-02-22T11:05:18Z</time>
      </trkpt>
      <trkpt lat="59.9847858858" lon="23.4176775215">
        <ele>10.2</ele>
        <time>2012-02-22T11:05:22Z</time>
      </trkpt>
      <trkpt lat="59.9847909149" lon="23.4175069499">
        <ele>10.4</ele>
        <time>2012-02-22T11:05:24Z</time>
      </trkpt>
      <trkpt lat="59.9847958603" lon="23.4170000964">
        <ele>10.8</ele>
        <time>2012-02-22T11:05:29Z</time>
      </trkpt>
      <trkpt lat="59.9848030687" lon="23.41658997">
        <ele>11</ele>
        <time>2012-02-22T11:05:34Z</time>
      </trkpt>
      <trkpt lat="59.9848064215" lon="23.4161610682">
        <ele>11.2</ele>
        <time>2012-02-22T11:05:39Z</time>
      </trkpt>
      <trkpt lat="59.9848018952" lon="23.4160831165">
        <ele>11.2</ele>
        <time>2012-02-22T11:05:40Z</time>
      </trkpt>
      <trkpt lat="59.9847925075" lon="23.4157395424">
        <ele>11.2</ele>
        <time>2012-02-22T11:05:44Z</time>
      </trkpt>
      <trkpt lat="59.9847814434" lon="23.4155226189">
        <ele>11.2</ele>
        <time>2012-02-22T11:05:47Z</time>
      </trkpt>
      <trkpt lat="59.9847505142" lon="23.41522481">
        <ele>11.2</ele>
        <time>2012-02-22T11:05:51Z</time>
      </trkpt>
      <trkpt lat="59.9847117898" lon="23.4150019352">
        <ele>11.2</ele>
        <time>2012-02-22T11:05:54Z</time>
      </trkpt>
      <trkpt lat="59.9846802739" lon="23.4146780586">
        <ele>11.2</ele>
        <time>2012-02-22T11:05:58Z</time>
      </trkpt>
      <trkpt lat="59.9846617499" lon="23.4143547687">
        <ele>11.2</ele>
        <time>2012-02-22T11:06:02Z</time>
      </trkpt>
      <trkpt lat="59.9846462433" lon="23.4138573868">
        <ele>11.2</ele>
        <time>2012-02-22T11:06:08Z</time>
      </trkpt>
      <trkpt lat="59.9846381129" lon="23.4137886552">
        <ele>11.2</ele>
        <time>2012-02-22T11:06:09Z</time>
      </trkpt>
      <trkpt lat="59.9846247857" lon="23.4134527925">
        <ele>11.2</ele>
        <time>2012-02-22T11:06:13Z</time>
      </trkpt>
      <trkpt lat="59.9846231931" lon="23.4133722424">
        <ele>11.2</ele>
        <time>2012-02-22T11:06:14Z</time>
      </trkpt>
      <trkpt lat="59.9846114585" lon="23.4132101365">
        <ele>11.2</ele>
        <time>2012-02-22T11:06:16Z</time>
      </trkpt>
      <trkpt lat="59.9845930183" lon="23.4128878524">
        <ele>11.2</ele>
        <time>2012-02-22T11:06:20Z</time>
      </trkpt>
      <trkpt lat="59.9845878215" lon="23.4127990043">
        <ele>11.2</ele>
        <time>2012-02-22T11:06:21Z</time>
      </trkpt>
      <trkpt lat="59.9845688784" lon="23.4123933203">
        <ele>11.2</ele>
        <time>2012-02-22T11:06:26Z</time>
      </trkpt>
      <trkpt lat="59.9845608318" lon="23.4122330584">
        <ele>11.6</ele>
        <time>2012-02-22T11:06:28Z</time>
      </trkpt>
      <trkpt lat="59.9845353508" lon="23.4118221777">
        <ele>12.2</ele>
        <time>2012-02-22T11:06:33Z</time>
      </trkpt>
      <trkpt lat="59.9845136417" lon="23.4113587424">
        <ele>12.8</ele>
        <time>2012-02-22T11:06:38Z</time>
      </trkpt>
      <trkpt lat="59.9844913458" lon="23.4109650446">
        <ele>13</ele>
        <time>2012-02-22T11:06:44Z</time>
      </trkpt>
      <trkpt lat="59.9844579859" lon="23.4105904575">
        <ele>13</ele>
        <time>2012-02-22T11:06:49Z</time>
      </trkpt>
      <trkpt lat="59.9844159926" lon="23.410229449">
        <ele>13.2</ele>
        <time>2012-02-22T11:06:54Z</time>
      </trkpt>
      <trkpt lat="59.9843631866" lon="23.4098684406">
        <ele>13.2</ele>
        <time>2012-02-22T11:06:58Z</time>
      </trkpt>
      <trkpt lat="59.9843080337" lon="23.4095692068">
        <ele>13.2</ele>
        <time>2012-02-22T11:07:03Z</time>
      </trkpt>
      <trkpt lat="59.9842434092" lon="23.4092169155">
        <ele>13.2</ele>
        <time>2012-02-22T11:07:08Z</time>
      </trkpt>
      <trkpt lat="59.9841865799" lon="23.4089306736">
        <ele>13.2</ele>
        <time>2012-02-22T11:07:12Z</time>
      </trkpt>
      <trkpt lat="59.9841164234" lon="23.4085908714">
        <ele>13.2</ele>
        <time>2012-02-22T11:07:16Z</time>
      </trkpt>
      <trkpt lat="59.9840385556" lon="23.408229863">
        <ele>13.4</ele>
        <time>2012-02-22T11:07:22Z</time>
      </trkpt>
      <trkpt lat="59.9839507133" lon="23.4078770688">
        <ele>14.2</ele>
        <time>2012-02-22T11:07:27Z</time>
      </trkpt>
      <trkpt lat="59.9838518907" lon="23.4075467381">
        <ele>14.6</ele>
        <time>2012-02-22T11:07:32Z</time>
      </trkpt>
      <trkpt lat="59.9837408305" lon="23.4072260466">
        <ele>14.8</ele>
        <time>2012-02-22T11:07:37Z</time>
      </trkpt>
      <trkpt lat="59.9836270043" lon="23.4069161678">
        <ele>16</ele>
        <time>2012-02-22T11:07:42Z</time>
      </trkpt>
      <trkpt lat="59.9835104959" lon="23.4066198676">
        <ele>16.6</ele>
        <time>2012-02-22T11:07:46Z</time>
      </trkpt>
      <trkpt lat="59.9833977593" lon="23.4063164428">
        <ele>17.8</ele>
        <time>2012-02-22T11:07:52Z</time>
      </trkpt>
      <trkpt lat="59.983280748" lon="23.4060175443">
        <ele>18.4</ele>
        <time>2012-02-22T11:07:57Z</time>
      </trkpt>
      <trkpt lat="59.9831592943" lon="23.4057272791">
        <ele>18.8</ele>
        <time>2012-02-22T11:08:02Z</time>
      </trkpt>
      <trkpt lat="59.9830378406" lon="23.4054408695">
        <ele>19.8</ele>
        <time>2012-02-22T11:08:07Z</time>
      </trkpt>
      <trkpt lat="59.9829090108" lon="23.405158651">
        <ele>20.6</ele>
        <time>2012-02-22T11:08:12Z</time>
      </trkpt>
      <trkpt lat="59.9827876408" lon="23.40490996">
        <ele>21</ele>
        <time>2012-02-22T11:08:16Z</time>
      </trkpt>
      <trkpt lat="59.9826439751" lon="23.4046327706">
        <ele>21.2</ele>
        <time>2012-02-22T11:08:22Z</time>
      </trkpt>
      <trkpt lat="59.9825062605" lon="23.4043559164">
        <ele>21.4</ele>
        <time>2012-02-22T11:08:27Z</time>
      </trkpt>
      <trkpt lat="59.9823731559" lon="23.4041032859">
        <ele>21.4</ele>
        <time>2012-02-22T11:08:31Z</time>
      </trkpt>
      <trkpt lat="59.982217504" lon="23.4038338917">
        <ele>21.4</ele>
        <time>2012-02-22T11:08:37Z</time>
      </trkpt>
      <trkpt lat="59.9820652887" lon="23.4035927444">
        <ele>21.4</ele>
        <time>2012-02-22T11:08:42Z</time>
      </trkpt>
      <trkpt lat="59.9819090501" lon="23.403339611">
        <ele>21.8</ele>
        <time>2012-02-22T11:08:46Z</time>
      </trkpt>
      <trkpt lat="59.9817192839" lon="23.4030443167">
        <ele>22.6</ele>
        <time>2012-02-22T11:08:52Z</time>
      </trkpt>
      <trkpt lat="59.9815784679" lon="23.4028471744">
        <ele>23</ele>
        <time>2012-02-22T11:08:57Z</time>
      </trkpt>
      <trkpt lat="59.9815169448" lon="23.4027603379">
        <ele>23</ele>
        <time>2012-02-22T11:08:58Z</time>
      </trkpt>
      <trkpt lat="59.9814030348" lon="23.4025927837">
        <ele>23.4</ele>
        <time>2012-02-22T11:09:04Z</time>
      </trkpt>
      <trkpt lat="59.9814048788" lon="23.4025886766">
        <ele>23.4</ele>
        <time>2012-02-22T11:09:06Z</time>
      </trkpt>
      <trkpt lat="59.9814026995" lon="23.40260192">
        <ele>23.4</ele>
        <time>2012-02-22T11:09:12Z</time>
      </trkpt>
      <trkpt lat="59.9814203015" lon="23.4025783669">
        <ele>22.4</ele>
        <time>2012-02-22T11:09:24Z</time>
      </trkpt>
      <trkpt lat="59.9814501411" lon="23.40258524">
        <ele>17.4</ele>
        <time>2012-02-22T11:10:01Z</time>
      </trkpt>
      <trkpt lat="59.9814927211" lon="23.4026567376">
        <ele>16</ele>
        <time>2012-02-22T11:10:57Z</time>
      </trkpt>
      <trkpt lat="59.9815384025" lon="23.4027212783">
        <ele>15.8</ele>
        <time>2012-02-22T11:10:58Z</time>
      </trkpt>
      <trkpt lat="59.981712746" lon="23.4029600786">
        <ele>15.6</ele>
        <time>2012-02-22T11:11:04Z</time>
      </trkpt>
      <trkpt lat="59.9818913643" lon="23.4032136311">
        <ele>15.4</ele>
        <time>2012-02-22T11:11:09Z</time>
      </trkpt>
      <trkpt lat="59.9820640314" lon="23.4034670997">
        <ele>15.2</ele>
        <time>2012-02-22T11:11:14Z</time>
      </trkpt>
      <trkpt lat="59.9822368662" lon="23.403741104">
        <ele>15.2</ele>
        <time>2012-02-22T11:11:19Z</time>
      </trkpt>
      <trkpt lat="59.98235086" lon="23.4039056407">
        <ele>15.2</ele>
        <time>2012-02-22T11:11:22Z</time>
      </trkpt>
      <trkpt lat="59.9824913407" lon="23.4041363945">
        <ele>15.2</ele>
        <time>2012-02-22T11:11:26Z</time>
      </trkpt>
      <trkpt lat="59.9826541172" lon="23.4044502966">
        <ele>15.2</ele>
        <time>2012-02-22T11:11:31Z</time>
      </trkpt>
      <trkpt lat="59.982718574" lon="23.4045725047">
        <ele>15.2</ele>
        <time>2012-02-22T11:11:33Z</time>
      </trkpt>
      <trkpt lat="59.9828716275" lon="23.4049301604">
        <ele>15.8</ele>
        <time>2012-02-22T11:11:38Z</time>
      </trkpt>
      <trkpt lat="59.9830191489" lon="23.4052638438">
        <ele>16.4</ele>
        <time>2012-02-22T11:11:43Z</time>
      </trkpt>
      <trkpt lat="59.9831718671" lon="23.4056037299">
        <ele>16.6</ele>
        <time>2012-02-22T11:11:48Z</time>
      </trkpt>
      <trkpt lat="59.9832899681" lon="23.4058929892">
        <ele>16.8</ele>
        <time>2012-02-22T11:11:52Z</time>
      </trkpt>
      <trkpt lat="59.9834251682" lon="23.4062410895">
        <ele>17</ele>
        <time>2012-02-22T11:11:57Z</time>
      </trkpt>
      <trkpt lat="59.983503036" lon="23.4064606115">
        <ele>17</ele>
        <time>2012-02-22T11:11:59Z</time>
      </trkpt>
      <trkpt lat="59.9835493879" lon="23.4066200352">
        <ele>17</ele>
        <time>2012-02-22T11:12:03Z</time>
      </trkpt>
      <trkpt lat="59.9835846757" lon="23.406839641">
        <ele>19.2</ele>
        <time>2012-02-22T11:12:39Z</time>
      </trkpt>
      <trkpt lat="59.9836084803" lon="23.4068930337">
        <ele>19.2</ele>
        <time>2012-02-22T11:12:42Z</time>
      </trkpt>
      <trkpt lat="59.9836301894" lon="23.4069428222">
        <ele>19.2</ele>
        <time>2012-02-22T11:12:44Z</time>
      </trkpt>
      <trkpt lat="59.9836460312" lon="23.4069831391">
        <ele>19.2</ele>
        <time>2012-02-22T11:12:46Z</time>
      </trkpt>
      <trkpt lat="59.9836537426" lon="23.4070050159">
        <ele>19.2</ele>
        <time>2012-02-22T11:12:47Z</time>
      </trkpt>
      <trkpt lat="59.9836875216" lon="23.4070950375">
        <ele>19.2</ele>
        <time>2012-02-22T11:12:52Z</time>
      </trkpt>
      <trkpt lat="59.983741082" lon="23.4072422237">
        <ele>19.2</ele>
        <time>2012-02-22T11:12:58Z</time>
      </trkpt>
      <trkpt lat="59.9837594383" lon="23.4073112905">
        <ele>19.2</ele>
        <time>2012-02-22T11:13:01Z</time>
      </trkpt>
      <trkpt lat="59.9837935527" lon="23.4074353427">
        <ele>19.2</ele>
        <time>2012-02-22T11:13:07Z</time>
      </trkpt>
      <trkpt lat="59.9838226379" lon="23.4075352549">
        <ele>19.2</ele>
        <time>2012-02-22T11:13:11Z</time>
      </trkpt>
      <trkpt lat="59.9838621166" lon="23.407650506">
        <ele>19.2</ele>
        <time>2012-02-22T11:13:15Z</time>
      </trkpt>
      <trkpt lat="59.983885083" lon="23.407727871">
        <ele>19.2</ele>
        <time>2012-02-22T11:13:19Z</time>
      </trkpt>
      <trkpt lat="59.9839005895" lon="23.4077714568">
        <ele>19.2</ele>
        <time>2012-02-22T11:13:21Z</time>
      </trkpt>
      <trkpt lat="59.9839557424" lon="23.4079209899">
        <ele>19.2</ele>
        <time>2012-02-22T11:13:27Z</time>
      </trkpt>
      <trkpt lat="59.9839666389" lon="23.4079556072">
        <ele>19.2</ele>
        <time>2012-02-22T11:13:28Z</time>
      </trkpt>
      <trkpt lat="59.9840113144" lon="23.4081158691">
        <ele>19.2</ele>
        <time>2012-02-22T11:13:34Z</time>
      </trkpt>
      <trkpt lat="59.9840495359" lon="23.4081914739">
        <ele>19.2</ele>
        <time>2012-02-22T11:13:38Z</time>
      </trkpt>
      <trkpt lat="59.9840817224" lon="23.4083140172">
        <ele>19.2</ele>
        <time>2012-02-22T11:13:43Z</time>
      </trkpt>
      <trkpt lat="59.9841491129" lon="23.4086081381">
        <ele>17.8</ele>
        <time>2012-02-22T11:13:54Z</time>
      </trkpt>
      <trkpt lat="59.9841942913" lon="23.4088205354">
        <ele>16.6</ele>
        <time>2012-02-22T11:14:02Z</time>
      </trkpt>
      <trkpt lat="59.9842044334" lon="23.4088348685">
        <ele>16.4</ele>
        <time>2012-02-22T11:14:03Z</time>
      </trkpt>
      <trkpt lat="59.9842330995" lon="23.4089689789">
        <ele>15.8</ele>
        <time>2012-02-22T11:14:08Z</time>
      </trkpt>
      <trkpt lat="59.9842381286" lon="23.4089946275">
        <ele>15.8</ele>
        <time>2012-02-22T11:14:09Z</time>
      </trkpt>
      <trkpt lat="59.984276853" lon="23.4091824659">
        <ele>14.8</ele>
        <time>2012-02-22T11:14:16Z</time>
      </trkpt>
      <trkpt lat="59.9843352749" lon="23.4094523631">
        <ele>13.6</ele>
        <time>2012-02-22T11:14:26Z</time>
      </trkpt>
      <trkpt lat="59.9843822135" lon="23.4096893194">
        <ele>13</ele>
        <time>2012-02-22T11:14:34Z</time>
      </trkpt>
      <trkpt lat="59.9844439043" lon="23.410013196">
        <ele>11.6</ele>
        <time>2012-02-22T11:14:46Z</time>
      </trkpt>
      <trkpt lat="59.9844771804" lon="23.410266497">
        <ele>11.2</ele>
        <time>2012-02-22T11:14:54Z</time>
      </trkpt>
      <trkpt lat="59.9845190061" lon="23.4106127533">
        <ele>11</ele>
        <time>2012-02-22T11:14:58Z</time>
      </trkpt>
      <trkpt lat="59.9845590716" lon="23.4110072055">
        <ele>11</ele>
        <time>2012-02-22T11:15:02Z</time>
      </trkpt>
      <trkpt lat="59.9845894979" lon="23.4114296533">
        <ele>11</ele>
        <time>2012-02-22T11:15:06Z</time>
      </trkpt>
      <trkpt lat="59.9846047529" lon="23.4116412963">
        <ele>11</ele>
        <time>2012-02-22T11:15:08Z</time>
      </trkpt>
      <trkpt lat="59.9846282223" lon="23.411929466">
        <ele>11</ele>
        <time>2012-02-22T11:15:10Z</time>
      </trkpt>
      <trkpt lat="59.9846600735" lon="23.4125267602">
        <ele>11</ele>
        <time>2012-02-22T11:15:16Z</time>
      </trkpt>
      <trkpt lat="59.984688991" lon="23.4130326917">
        <ele>11</ele>
        <time>2012-02-22T11:15:22Z</time>
      </trkpt>
      <trkpt lat="59.9847111193" lon="23.4133343562">
        <ele>11</ele>
        <time>2012-02-22T11:15:24Z</time>
      </trkpt>
      <trkpt lat="59.9847370193" lon="23.4140071713">
        <ele>10.8</ele>
        <time>2012-02-22T11:15:31Z</time>
      </trkpt>
      <trkpt lat="59.9847501789" lon="23.414451412">
        <ele>10.8</ele>
        <time>2012-02-22T11:15:35Z</time>
      </trkpt>
      <trkpt lat="59.9848058347" lon="23.4151523065">
        <ele>10.8</ele>
        <time>2012-02-22T11:15:42Z</time>
      </trkpt>
      <trkpt lat="59.9848623287" lon="23.4156291528">
        <ele>10.8</ele>
        <time>2012-02-22T11:15:48Z</time>
      </trkpt>
      <trkpt lat="59.9848679446" lon="23.4157294842">
        <ele>10.8</ele>
        <time>2012-02-22T11:15:49Z</time>
      </trkpt>
      <trkpt lat="59.9848697886" lon="23.4162539396">
        <ele>10.8</ele>
        <time>2012-02-22T11:15:54Z</time>
      </trkpt>
      <trkpt lat="59.9848795116" lon="23.416563567">
        <ele>10.8</ele>
        <time>2012-02-22T11:15:57Z</time>
      </trkpt>
      <trkpt lat="59.9848708783" lon="23.4170559198">
        <ele>10.8</ele>
        <time>2012-02-22T11:16:02Z</time>
      </trkpt>
      <trkpt lat="59.984867274" lon="23.4174335244">
        <ele>10.8</ele>
        <time>2012-02-22T11:16:06Z</time>
      </trkpt>
      <trkpt lat="59.984854785" lon="23.4178315809">
        <ele>10.8</ele>
        <time>2012-02-22T11:16:09Z</time>
      </trkpt>
      <trkpt lat="59.9848477442" lon="23.4180363507">
        <ele>10.8</ele>
        <time>2012-02-22T11:16:12Z</time>
      </trkpt>
      <trkpt lat="59.9848375183" lon="23.4181091056">
        <ele>10.8</ele>
        <time>2012-02-22T11:16:16Z</time>
      </trkpt>
      <trkpt lat="59.984832573" lon="23.4180955269">
        <ele>10.8</ele>
        <time>2012-02-22T11:16:27Z</time>
      </trkpt>
      <trkpt lat="59.9848245264" lon="23.4183053258">
        <ele>10.8</ele>
        <time>2012-02-22T11:16:34Z</time>
      </trkpt>
      <trkpt lat="59.9848273762" lon="23.4183318127">
        <ele>10.8</ele>
        <time>2012-02-22T11:16:36Z</time>
      </trkpt>
      <trkpt lat="59.9848262866" lon="23.4185532625">
        <ele>10.8</ele>
        <time>2012-02-22T11:16:44Z</time>
      </trkpt>
      <trkpt lat="59.98482285" lon="23.4188068149">
        <ele>10.8</ele>
        <time>2012-02-22T11:16:54Z</time>
      </trkpt>
      <trkpt lat="59.9848257836" lon="23.4190632172">
        <ele>10.8</ele>
        <time>2012-02-22T11:17:03Z</time>
      </trkpt>
      <trkpt lat="59.984835339" lon="23.4192988325">
        <ele>10.8</ele>
        <time>2012-02-22T11:17:12Z</time>
      </trkpt>
      <trkpt lat="59.9848327406" lon="23.4195725853">
        <ele>10.8</ele>
        <time>2012-02-22T11:17:21Z</time>
      </trkpt>
      <trkpt lat="59.9848166474" lon="23.4197610104">
        <ele>10.8</ele>
        <time>2012-02-22T11:17:28Z</time>
      </trkpt>
      <trkpt lat="59.9847878975" lon="23.4200097014">
        <ele>10.8</ele>
        <time>2012-02-22T11:17:36Z</time>
      </trkpt>
      <trkpt lat="59.9847628356" lon="23.4202223502">
        <ele>10.8</ele>
        <time>2012-02-22T11:17:42Z</time>
      </trkpt>
      <trkpt lat="59.9847134662" lon="23.4205857894">
        <ele>10.8</ele>
        <time>2012-02-22T11:17:49Z</time>
      </trkpt>
      <trkpt lat="59.9846647673" lon="23.4208184709">
        <ele>10.8</ele>
        <time>2012-02-22T11:17:54Z</time>
      </trkpt>
      <trkpt lat="59.9846101174" lon="23.4210451175">
        <ele>10.8</ele>
        <time>2012-02-22T11:17:58Z</time>
      </trkpt>
      <trkpt lat="59.9845511088" lon="23.4213544096">
        <ele>10.8</ele>
        <time>2012-02-22T11:18:04Z</time>
      </trkpt>
      <trkpt lat="59.9845124682" lon="23.4215712494">
        <ele>10.8</ele>
        <time>2012-02-22T11:18:09Z</time>
      </trkpt>
      <trkpt lat="59.9844734924" lon="23.4218346925">
        <ele>10.8</ele>
        <time>2012-02-22T11:18:14Z</time>
      </trkpt>
      <trkpt lat="59.9844278948" lon="23.4220967945">
        <ele>10.8</ele>
        <time>2012-02-22T11:18:19Z</time>
      </trkpt>
      <trkpt lat="59.9843807886" lon="23.4224666877">
        <ele>10.8</ele>
        <time>2012-02-22T11:18:26Z</time>
      </trkpt>
      <trkpt lat="59.9843256357" lon="23.4227906482">
        <ele>10.8</ele>
        <time>2012-02-22T11:18:31Z</time>
      </trkpt>
      <trkpt lat="59.9842631067" lon="23.423116285">
        <ele>10.8</ele>
        <time>2012-02-22T11:18:38Z</time>
      </trkpt>
      <trkpt lat="59.9842033437" lon="23.423466397">
        <ele>10.8</ele>
        <time>2012-02-22T11:18:44Z</time>
      </trkpt>
      <trkpt lat="59.9841628592" lon="23.4236985756">
        <ele>11.6</ele>
        <time>2012-02-22T11:18:49Z</time>
      </trkpt>
      <trkpt lat="59.9841087121" lon="23.4240068619">
        <ele>12.2</ele>
        <time>2012-02-22T11:18:56Z</time>
      </trkpt>
      <trkpt lat="59.9840659644" lon="23.4243190876">
        <ele>12.6</ele>
        <time>2012-02-22T11:19:02Z</time>
      </trkpt>
      <trkpt lat="59.9840496197" lon="23.424671798">
        <ele>12.8</ele>
        <time>2012-02-22T11:19:08Z</time>
      </trkpt>
      <trkpt lat="59.9840410702" lon="23.4249132805">
        <ele>12.8</ele>
        <time>2012-02-22T11:19:13Z</time>
      </trkpt>
      <trkpt lat="59.9840525534" lon="23.4250620593">
        <ele>12.4</ele>
        <time>2012-02-22T11:19:18Z</time>
      </trkpt>
      <trkpt lat="59.9840626116" lon="23.425328436">
        <ele>11.8</ele>
        <time>2012-02-22T11:19:22Z</time>
      </trkpt>
      <trkpt lat="59.9841536391" lon="23.4253661546">
        <ele>11.4</ele>
        <time>2012-02-22T11:19:27Z</time>
      </trkpt>
      <trkpt lat="59.9841780304" lon="23.4253589462">
        <ele>11.4</ele>
        <time>2012-02-22T11:19:28Z</time>
      </trkpt>
      <trkpt lat="59.9842864084" lon="23.4252058927">
        <ele>11.2</ele>
        <time>2012-02-22T11:19:33Z</time>
      </trkpt>
      <trkpt lat="59.9842947065" lon="23.4251293659">
        <ele>11</ele>
        <time>2012-02-22T11:19:38Z</time>
      </trkpt>
      <trkpt lat="59.9843057706" lon="23.4250148692">
        <ele>11</ele>
        <time>2012-02-22T11:19:40Z</time>
      </trkpt>
      <trkpt lat="59.9843455008" lon="23.4246936748">
        <ele>11</ele>
        <time>2012-02-22T11:19:46Z</time>
      </trkpt>
      <trkpt lat="59.9843983067" lon="23.4244340873">
        <ele>10.8</ele>
        <time>2012-02-22T11:19:52Z</time>
      </trkpt>
      <trkpt lat="59.9844555551" lon="23.4241879109">
        <ele>10.8</ele>
        <time>2012-02-22T11:19:58Z</time>
      </trkpt>
      <trkpt lat="59.9845094507" lon="23.423980878">
        <ele>11.2</ele>
        <time>2012-02-22T11:20:04Z</time>
      </trkpt>
      <trkpt lat="59.984595449" lon="23.4237034371">
        <ele>12.2</ele>
        <time>2012-02-22T11:20:11Z</time>
      </trkpt>
      <trkpt lat="59.9846609955" lon="23.423455249">
        <ele>13.2</ele>
        <time>2012-02-22T11:20:16Z</time>
      </trkpt>
      <trkpt lat="59.9847227701" lon="23.4232163649">
        <ele>14</ele>
        <time>2012-02-22T11:20:22Z</time>
      </trkpt>
      <trkpt lat="59.9848363448" lon="23.4230359864">
        <ele>14.8</ele>
        <time>2012-02-22T11:20:28Z</time>
      </trkpt>
      <trkpt lat="59.9849901527" lon="23.4229241718">
        <ele>16</ele>
        <time>2012-02-22T11:20:34Z</time>
      </trkpt>
      <trkpt lat="59.9851312201" lon="23.4228230861">
        <ele>17.2</ele>
        <time>2012-02-22T11:20:40Z</time>
      </trkpt>
      <trkpt lat="59.9852763946" lon="23.4227136185">
        <ele>18.2</ele>
        <time>2012-02-22T11:20:46Z</time>
      </trkpt>
      <trkpt lat="59.9854305377" lon="23.4226292966">
        <ele>19.2</ele>
        <time>2012-02-22T11:20:52Z</time>
      </trkpt>
      <trkpt lat="59.9855575235" lon="23.4225437174">
        <ele>20</ele>
        <time>2012-02-22T11:20:58Z</time>
      </trkpt>
      <trkpt lat="59.9857187913" lon="23.4224308132">
        <ele>20.8</ele>
        <time>2012-02-22T11:21:04Z</time>
      </trkpt>
      <trkpt lat="59.9858900335" lon="23.422312377">
        <ele>21</ele>
        <time>2012-02-22T11:21:12Z</time>
      </trkpt>
      <trkpt lat="59.9860440928" lon="23.4222093634">
        <ele>21.2</ele>
        <time>2012-02-22T11:21:18Z</time>
      </trkpt>
      <trkpt lat="59.9861617747" lon="23.4221236166">
        <ele>21.2</ele>
        <time>2012-02-22T11:21:22Z</time>
      </trkpt>
      <trkpt lat="59.9864538001" lon="23.4219641928">
        <ele>21.4</ele>
        <time>2012-02-22T11:21:34Z</time>
      </trkpt>
      <trkpt lat="59.9866296523" lon="23.4218660408">
        <ele>21.8</ele>
        <time>2012-02-22T11:21:40Z</time>
      </trkpt>
      <trkpt lat="59.9868102823" lon="23.4217910228">
        <ele>22.6</ele>
        <time>2012-02-22T11:21:48Z</time>
      </trkpt>
      <trkpt lat="59.9869453985" lon="23.4217757677">
        <ele>22.8</ele>
        <time>2012-02-22T11:21:52Z</time>
      </trkpt>
      <trkpt lat="59.9871520962" lon="23.4218118099">
        <ele>23.2</ele>
        <time>2012-02-22T11:22:01Z</time>
      </trkpt>
      <trkpt lat="59.9873155432" lon="23.4218447508">
        <ele>23.2</ele>
        <time>2012-02-22T11:22:07Z</time>
      </trkpt>
      <trkpt lat="59.9875173794" lon="23.4218564854">
        <ele>23.2</ele>
        <time>2012-02-22T11:22:14Z</time>
      </trkpt>
      <trkpt lat="59.987678228" lon="23.4218717405">
        <ele>23.4</ele>
        <time>2012-02-22T11:22:19Z</time>
      </trkpt>
      <trkpt lat="59.9878699221" lon="23.4219037593">
        <ele>22.6</ele>
        <time>2012-02-22T11:22:27Z</time>
      </trkpt>
      <trkpt lat="59.9880645498" lon="23.4219289889">
        <ele>22</ele>
        <time>2012-02-22T11:22:34Z</time>
      </trkpt>
      <trkpt lat="59.988209389" lon="23.4219451659">
        <ele>21.6</ele>
        <time>2012-02-22T11:22:39Z</time>
      </trkpt>
      <trkpt lat="59.9883788711" lon="23.4219787773">
        <ele>21</ele>
        <time>2012-02-22T11:22:46Z</time>
      </trkpt>
      <trkpt lat="59.9885087067" lon="23.421999313">
        <ele>20.2</ele>
        <time>2012-02-22T11:22:51Z</time>
      </trkpt>
      <trkpt lat="59.9886494388" lon="23.4220296555">
        <ele>19.8</ele>
        <time>2012-02-22T11:22:57Z</time>
      </trkpt>
      <trkpt lat="59.9887903385" lon="23.4220506102">
        <ele>19.6</ele>
        <time>2012-02-22T11:23:03Z</time>
      </trkpt>
      <trkpt lat="59.9889171567" lon="23.4220739957">
        <ele>19.4</ele>
        <time>2012-02-22T11:23:09Z</time>
      </trkpt>
      <trkpt lat="59.9890282168" lon="23.4220998958">
        <ele>19.4</ele>
        <time>2012-02-22T11:23:14Z</time>
      </trkpt>
      <trkpt lat="59.9891959387" lon="23.422118336">
        <ele>20.4</ele>
        <time>2012-02-22T11:23:21Z</time>
      </trkpt>
      <trkpt lat="59.9893820168" lon="23.4221371114">
        <ele>20.8</ele>
        <time>2012-02-22T11:23:28Z</time>
      </trkpt>
      <trkpt lat="59.9895609704" lon="23.4221792724">
        <ele>21.2</ele>
        <time>2012-02-22T11:23:34Z</time>
      </trkpt>
      <trkpt lat="59.9897603758" lon="23.422226211">
        <ele>21.2</ele>
        <time>2012-02-22T11:23:42Z</time>
      </trkpt>
      <trkpt lat="59.9899398323" lon="23.422252614">
        <ele>21.4</ele>
        <time>2012-02-22T11:23:49Z</time>
      </trkpt>
      <trkpt lat="59.9900674886" lon="23.4222059268">
        <ele>21.4</ele>
        <time>2012-02-22T11:23:54Z</time>
      </trkpt>
      <trkpt lat="59.9902013476" lon="23.4221294839">
        <ele>21.4</ele>
        <time>2012-02-22T11:24:00Z</time>
      </trkpt>
      <trkpt lat="59.9903067919" lon="23.4220630154">
        <ele>21.4</ele>
        <time>2012-02-22T11:24:04Z</time>
      </trkpt>
      <trkpt lat="59.9903372182" lon="23.4220524542">
        <ele>21.4</ele>
        <time>2012-02-22T11:24:06Z</time>
      </trkpt>
      <trkpt lat="59.9904148346" lon="23.4219787773">
        <ele>21.4</ele>
        <time>2012-02-22T11:24:10Z</time>
      </trkpt>
      <trkpt lat="59.9904395612" lon="23.4219536316">
        <ele>21.4</ele>
        <time>2012-02-22T11:24:11Z</time>
      </trkpt>
      <trkpt lat="59.9905560696" lon="23.4219325093">
        <ele>21.4</ele>
        <time>2012-02-22T11:24:14Z</time>
      </trkpt>
      <trkpt lat="59.9906894256" lon="23.4218810444">
        <ele>21.4</ele>
        <time>2012-02-22T11:24:19Z</time>
      </trkpt>
      <trkpt lat="59.9908143159" lon="23.4218130672">
        <ele>21.4</ele>
        <time>2012-02-22T11:24:24Z</time>
      </trkpt>
      <trkpt lat="59.9909111269" lon="23.4218116423">
        <ele>21.4</ele>
        <time>2012-02-22T11:24:28Z</time>
      </trkpt>
      <trkpt lat="59.9910410463" lon="23.4218385482">
        <ele>22</ele>
        <time>2012-02-22T11:24:34Z</time>
      </trkpt>
      <trkpt lat="59.9912756557" lon="23.4220439885">
        <ele>23</ele>
        <time>2012-02-22T11:24:47Z</time>
      </trkpt>
      <trkpt lat="59.991313039" lon="23.4221319147">
        <ele>23.2</ele>
        <time>2012-02-22T11:24:51Z</time>
      </trkpt>
      <trkpt lat="59.9913516795" lon="23.4222803581">
        <ele>23.2</ele>
        <time>2012-02-22T11:24:56Z</time>
      </trkpt>
      <trkpt lat="59.9913624922" lon="23.4223046656">
        <ele>23.4</ele>
        <time>2012-02-22T11:24:57Z</time>
      </trkpt>
      <trkpt lat="59.991406581" lon="23.4224238562">
        <ele>23.4</ele>
        <time>2012-02-22T11:25:01Z</time>
      </trkpt>
      <trkpt lat="59.9914516756" lon="23.4226691944">
        <ele>23.4</ele>
        <time>2012-02-22T11:25:07Z</time>
      </trkpt>
      <trkpt lat="59.9914593869" lon="23.4228021314">
        <ele>23.4</ele>
        <time>2012-02-22T11:25:12Z</time>
      </trkpt>
      <trkpt lat="59.9914634941" lon="23.4228941646">
        <ele>23.6</ele>
        <time>2012-02-22T11:25:16Z</time>
      </trkpt>
      <trkpt lat="59.9914763184" lon="23.4230706875">
        <ele>24.6</ele>
        <time>2012-02-22T11:25:22Z</time>
      </trkpt>
      <trkpt lat="59.991481599" lon="23.4231457055">
        <ele>24.8</ele>
        <time>2012-02-22T11:25:26Z</time>
      </trkpt>
      <trkpt lat="59.9914352471" lon="23.4234527345">
        <ele>26.2</ele>
        <time>2012-02-22T11:25:39Z</time>
      </trkpt>
      <trkpt lat="59.9913902363" lon="23.4235764513">
        <ele>26.8</ele>
        <time>2012-02-22T11:25:44Z</time>
      </trkpt>
      <trkpt lat="59.9913086804" lon="23.4237288342">
        <ele>27.2</ele>
        <time>2012-02-22T11:25:52Z</time>
      </trkpt>
      <trkpt lat="59.9912577184" lon="23.4238034332">
        <ele>27.4</ele>
        <time>2012-02-22T11:25:56Z</time>
      </trkpt>
      <trkpt lat="59.9912214248" lon="23.4239786987">
        <ele>27.4</ele>
        <time>2012-02-22T11:26:03Z</time>
      </trkpt>
      <trkpt lat="59.9912591433" lon="23.4242834646">
        <ele>27.6</ele>
        <time>2012-02-22T11:26:09Z</time>
      </trkpt>
      <trkpt lat="59.9912793437" lon="23.4244996338">
        <ele>27.6</ele>
        <time>2012-02-22T11:26:13Z</time>
      </trkpt>
      <trkpt lat="59.9912916651" lon="23.4247839478">
        <ele>27.6</ele>
        <time>2012-02-22T11:26:18Z</time>
      </trkpt>
      <trkpt lat="59.9913251927" lon="23.4250373327">
        <ele>27.4</ele>
        <time>2012-02-22T11:26:22Z</time>
      </trkpt>
      <trkpt lat="59.9913923317" lon="23.4256575094">
        <ele>25.4</ele>
        <time>2012-02-22T11:26:34Z</time>
      </trkpt>
      <trkpt lat="59.9914899809" lon="23.4259445895">
        <ele>24.4</ele>
        <time>2012-02-22T11:26:40Z</time>
      </trkpt>
      <trkpt lat="59.9914952615" lon="23.4260066156">
        <ele>24.4</ele>
        <time>2012-02-22T11:26:42Z</time>
      </trkpt>
      <trkpt lat="59.9915382606" lon="23.4262235391">
        <ele>24</ele>
        <time>2012-02-22T11:26:46Z</time>
      </trkpt>
      <trkpt lat="59.9916305453" lon="23.4263302407">
        <ele>23.8</ele>
        <time>2012-02-22T11:26:51Z</time>
      </trkpt>
      <trkpt lat="59.99177748" lon="23.4264613336">
        <ele>23.6</ele>
        <time>2012-02-22T11:26:57Z</time>
      </trkpt>
      <trkpt lat="59.9919213973" lon="23.4266614934">
        <ele>23.4</ele>
        <time>2012-02-22T11:27:04Z</time>
      </trkpt>
      <trkpt lat="59.9920523225" lon="23.4268429616">
        <ele>23.4</ele>
        <time>2012-02-22T11:27:09Z</time>
      </trkpt>
      <trkpt lat="59.9921814038" lon="23.4269992002">
        <ele>23.4</ele>
        <time>2012-02-22T11:27:16Z</time>
      </trkpt>
      <trkpt lat="59.9923348764" lon="23.427117385">
        <ele>23.4</ele>
        <time>2012-02-22T11:27:22Z</time>
      </trkpt>
      <trkpt lat="59.9924916179" lon="23.4271654132">
        <ele>23.4</ele>
        <time>2012-02-22T11:27:28Z</time>
      </trkpt>
      <trkpt lat="59.9926779476" lon="23.4271695204">
        <ele>23.4</ele>
        <time>2012-02-22T11:27:34Z</time>
      </trkpt>
      <trkpt lat="59.992857404" lon="23.4271555226">
        <ele>22.6</ele>
        <time>2012-02-22T11:27:41Z</time>
      </trkpt>
      <trkpt lat="59.9930164087" lon="23.4271518346">
        <ele>22</ele>
        <time>2012-02-22T11:27:48Z</time>
      </trkpt>
      <trkpt lat="59.9931380301" lon="23.4271600488">
        <ele>21.8</ele>
        <time>2012-02-22T11:27:52Z</time>
      </trkpt>
      <trkpt lat="59.9933224319" lon="23.4271416086">
        <ele>21.6</ele>
        <time>2012-02-22T11:27:59Z</time>
      </trkpt>
      <trkpt lat="59.9935080909" lon="23.4270120245">
        <ele>21.4</ele>
        <time>2012-02-22T11:28:08Z</time>
      </trkpt>
      <trkpt lat="59.9936197378" lon="23.4268247728">
        <ele>21.4</ele>
        <time>2012-02-22T11:28:14Z</time>
      </trkpt>
      <trkpt lat="59.9937007908" lon="23.4266656844">
        <ele>21.4</ele>
        <time>2012-02-22T11:28:19Z</time>
      </trkpt>
      <trkpt lat="59.9937529262" lon="23.4265888223">
        <ele>21.4</ele>
        <time>2012-02-22T11:28:21Z</time>
      </trkpt>
      <trkpt lat="59.9938207358" lon="23.4265669456">
        <ele>21.4</ele>
        <time>2012-02-22T11:28:26Z</time>
      </trkpt>
      <trkpt lat="59.9939671676" lon="23.4262610062">
        <ele>21.4</ele>
        <time>2012-02-22T11:28:34Z</time>
      </trkpt>
      <trkpt lat="59.9940537526" lon="23.4261176757">
        <ele>21.4</ele>
        <time>2012-02-22T11:28:39Z</time>
      </trkpt>
      <trkpt lat="59.9940991825" lon="23.4261154126">
        <ele>21.4</ele>
        <time>2012-02-22T11:28:41Z</time>
      </trkpt>
      <trkpt lat="59.9941959097" lon="23.4262418117">
        <ele>21.4</ele>
        <time>2012-02-22T11:28:46Z</time>
      </trkpt>
      <trkpt lat="59.9942776332" lon="23.4263631816">
        <ele>21.4</ele>
        <time>2012-02-22T11:28:51Z</time>
      </trkpt>
      <trkpt lat="59.9943079757" lon="23.4264184183">
        <ele>21.4</ele>
        <time>2012-02-22T11:28:54Z</time>
      </trkpt>
      <trkpt lat="59.9943332052" lon="23.4264743256">
        <ele>21.4</ele>
        <time>2012-02-22T11:29:01Z</time>
      </trkpt>
      <trkpt lat="59.9943882743" lon="23.4266070111">
        <ele>21.4</ele>
        <time>2012-02-22T11:29:07Z</time>
      </trkpt>
      <trkpt lat="59.9944005118" lon="23.4266292231">
        <ele>21.4</ele>
        <time>2012-02-22T11:29:08Z</time>
      </trkpt>
      <trkpt lat="59.9944839956" lon="23.4267968611">
        <ele>21.4</ele>
        <time>2012-02-22T11:29:16Z</time>
      </trkpt>
      <trkpt lat="59.9945406572" lon="23.4268944264">
        <ele>21.4</ele>
        <time>2012-02-22T11:29:21Z</time>
      </trkpt>
    </trkseg>
  </trk>
</gpx>